sensor_id;sensor_type;location;lat;lon;timestamp;P1;durP1;ratioP1;P2;durP2;ratioP2
67747;SDS011;54543;50.712;6.070;2023-01-24T00:02:21;8.50;;;4.57;;
67747;SDS011;54543;50.712;6.070;2023-01-24T00:04:46;10.63;;;5.38;;
67747;SDS011;54543;50.712;6.070;2023-01-24T00:07:12;8.43;;;4.30;;
67747;SDS011;54543;50.712;6.070;2023-01-24T00:09:38;9.07;;;5.15;;
67747;SDS011;54543;50.712;6.070;2023-01-24T00:12:04;9.15;;;5.32;;
67747;SDS011;54543;50.712;6.070;2023-01-24T00:14:29;9.20;;;4.55;;
67747;SDS011;54543;50.712;6.070;2023-01-24T00:16:55;10.23;;;5.07;;
67747;SDS011;54543;50.712;6.070;2023-01-24T00:19:20;8.77;;;4.78;;
67747;SDS011;54543;50.712;6.070;2023-01-24T00:21:46;9.23;;;4.95;;
67747;SDS011;54543;50.712;6.070;2023-01-24T00:24:12;8.38;;;4.70;;
67747;SDS011;54543;50.712;6.070;2023-01-24T00:26:37;7.95;;;4.28;;
67747;SDS011;54543;50.712;6.070;2023-01-24T00:29:03;9.63;;;4.10;;
67747;SDS011;54543;50.712;6.070;2023-01-24T00:31:29;7.70;;;4.35;;
67747;SDS011;54543;50.712;6.070;2023-01-24T00:33:55;8.35;;;4.05;;
67747;SDS011;54543;50.712;6.070;2023-01-24T00:36:21;8.57;;;5.07;;
67747;SDS011;54543;50.712;6.070;2023-01-24T00:38:46;7.97;;;4.88;;
67747;SDS011;54543;50.712;6.070;2023-01-24T00:41:12;9.82;;;4.95;;
67747;SDS011;54543;50.712;6.070;2023-01-24T00:43:38;7.57;;;4.30;;
67747;SDS011;54543;50.712;6.070;2023-01-24T00:46:07;8.10;;;4.28;;
67747;SDS011;54543;50.712;6.070;2023-01-24T00:48:33;8.38;;;4.90;;
67747;SDS011;54543;50.712;6.070;2023-01-24T00:50:58;8.20;;;4.65;;
67747;SDS011;54543;50.712;6.070;2023-01-24T00:53:24;9.70;;;5.07;;
67747;SDS011;54543;50.712;6.070;2023-01-24T00:55:51;8.10;;;4.22;;
67747;SDS011;54543;50.712;6.070;2023-01-24T00:58:17;7.53;;;4.35;;
67747;SDS011;54543;50.712;6.070;2023-01-24T01:00:43;8.70;;;4.45;;
67747;SDS011;54543;50.712;6.070;2023-01-24T01:03:11;7.25;;;3.85;;
67747;SDS011;54543;50.712;6.070;2023-01-24T01:05:38;8.27;;;4.15;;
67747;SDS011;54543;50.712;6.070;2023-01-24T01:08:04;7.65;;;4.32;;
67747;SDS011;54543;50.712;6.070;2023-01-24T01:10:30;7.38;;;4.47;;
67747;SDS011;54543;50.712;6.070;2023-01-24T01:12:56;6.72;;;4.10;;
67747;SDS011;54543;50.712;6.070;2023-01-24T01:15:22;6.93;;;3.88;;
67747;SDS011;54543;50.712;6.070;2023-01-24T01:17:47;8.30;;;4.22;;
67747;SDS011;54543;50.712;6.070;2023-01-24T01:20:13;7.80;;;4.03;;
67747;SDS011;54543;50.712;6.070;2023-01-24T01:22:39;7.53;;;4.50;;
67747;SDS011;54543;50.712;6.070;2023-01-24T01:25:04;7.00;;;3.83;;
67747;SDS011;54543;50.712;6.070;2023-01-24T01:27:30;6.47;;;3.88;;
67747;SDS011;54543;50.712;6.070;2023-01-24T01:29:56;8.30;;;4.38;;
67747;SDS011;54543;50.712;6.070;2023-01-24T01:32:21;8.48;;;4.07;;
67747;SDS011;54543;50.712;6.070;2023-01-24T01:34:47;8.55;;;4.78;;
67747;SDS011;54543;50.712;6.070;2023-01-24T01:37:12;8.30;;;4.72;;
67747;SDS011;54543;50.712;6.070;2023-01-24T01:39:38;8.13;;;4.28;;
67747;SDS011;54543;50.712;6.070;2023-01-24T01:42:03;8.43;;;4.38;;
67747;SDS011;54543;50.712;6.070;2023-01-24T01:44:30;8.20;;;4.15;;
67747;SDS011;54543;50.712;6.070;2023-01-24T01:50:22;6.68;;;4.07;;
67747;SDS011;54543;50.712;6.070;2023-01-24T01:52:53;8.70;;;4.13;;
67747;SDS011;54543;50.712;6.070;2023-01-24T01:55:20;6.78;;;3.75;;
67747;SDS011;54543;50.712;6.070;2023-01-24T01:57:49;7.50;;;4.00;;
67747;SDS011;54543;50.712;6.070;2023-01-24T02:00:19;7.57;;;4.32;;
67747;SDS011;54543;50.712;6.070;2023-01-24T02:02:48;7.80;;;4.70;;
67747;SDS011;54543;50.712;6.070;2023-01-24T02:05:18;8.07;;;4.03;;
67747;SDS011;54543;50.712;6.070;2023-01-24T02:07:54;7.50;;;4.22;;
67747;SDS011;54543;50.712;6.070;2023-01-24T02:10:31;7.30;;;4.25;;
67747;SDS011;54543;50.712;6.070;2023-01-24T02:15:43;7.75;;;3.50;;
67747;SDS011;54543;50.712;6.070;2023-01-24T02:18:28;6.43;;;3.58;;
67747;SDS011;54543;50.712;6.070;2023-01-24T02:20:56;7.78;;;4.38;;
67747;SDS011;54543;50.712;6.070;2023-01-24T02:26:20;7.63;;;4.47;;
67747;SDS011;54543;50.712;6.070;2023-01-24T02:28:56;7.60;;;4.50;;
67747;SDS011;54543;50.712;6.070;2023-01-24T02:31:24;6.75;;;3.90;;
67747;SDS011;54543;50.712;6.070;2023-01-24T02:33:50;8.90;;;4.80;;
67747;SDS011;54543;50.712;6.070;2023-01-24T02:39:06;7.93;;;4.43;;
67747;SDS011;54543;50.712;6.070;2023-01-24T02:44:36;7.10;;;3.88;;
67747;SDS011;54543;50.712;6.070;2023-01-24T02:47:07;9.90;;;4.43;;
67747;SDS011;54543;50.712;6.070;2023-01-24T02:49:33;7.43;;;4.03;;
67747;SDS011;54543;50.712;6.070;2023-01-24T02:51:58;7.93;;;3.72;;
67747;SDS011;54543;50.712;6.070;2023-01-24T02:54:42;8.43;;;4.22;;
67747;SDS011;54543;50.712;6.070;2023-01-24T02:57:07;7.53;;;4.32;;
67747;SDS011;54543;50.712;6.070;2023-01-24T02:59:52;7.80;;;4.40;;
67747;SDS011;54543;50.712;6.070;2023-01-24T03:02:17;8.65;;;4.53;;
67747;SDS011;54543;50.712;6.070;2023-01-24T03:04:43;7.28;;;4.00;;
67747;SDS011;54543;50.712;6.070;2023-01-24T03:07:08;7.07;;;3.83;;
67747;SDS011;54543;50.712;6.070;2023-01-24T03:09:34;8.13;;;4.45;;
67747;SDS011;54543;50.712;6.070;2023-01-24T03:12:01;10.27;;;4.80;;
67747;SDS011;54543;50.712;6.070;2023-01-24T03:14:47;7.53;;;3.58;;
67747;SDS011;54543;50.712;6.070;2023-01-24T03:17:32;7.65;;;4.13;;
67747;SDS011;54543;50.712;6.070;2023-01-24T03:20:16;9.27;;;4.35;;
67747;SDS011;54543;50.712;6.070;2023-01-24T03:23:00;8.50;;;5.05;;
67747;SDS011;54543;50.712;6.070;2023-01-24T03:25:44;7.55;;;4.28;;
67747;SDS011;54543;50.712;6.070;2023-01-24T03:28:28;7.40;;;4.20;;
67747;SDS011;54543;50.712;6.070;2023-01-24T03:31:12;8.02;;;4.30;;
67747;SDS011;54543;50.712;6.070;2023-01-24T03:33:57;8.65;;;4.03;;
67747;SDS011;54543;50.712;6.070;2023-01-24T03:36:41;6.68;;;3.67;;
67747;SDS011;54543;50.712;6.070;2023-01-24T03:39:07;7.25;;;3.72;;
67747;SDS011;54543;50.712;6.070;2023-01-24T03:41:53;7.72;;;4.15;;
67747;SDS011;54543;50.712;6.070;2023-01-24T03:44:18;7.05;;;4.05;;
67747;SDS011;54543;50.712;6.070;2023-01-24T03:46:43;7.85;;;4.50;;
67747;SDS011;54543;50.712;6.070;2023-01-24T03:49:09;8.10;;;4.32;;
67747;SDS011;54543;50.712;6.070;2023-01-24T03:51:35;10.07;;;4.85;;
67747;SDS011;54543;50.712;6.070;2023-01-24T03:54:19;6.85;;;3.47;;
67747;SDS011;54543;50.712;6.070;2023-01-24T03:56:45;7.97;;;4.35;;
67747;SDS011;54543;50.712;6.070;2023-01-24T03:59:10;7.47;;;4.10;;
67747;SDS011;54543;50.712;6.070;2023-01-24T04:01:36;7.00;;;3.47;;
67747;SDS011;54543;50.712;6.070;2023-01-24T04:04:01;7.90;;;4.45;;
67747;SDS011;54543;50.712;6.070;2023-01-24T04:06:27;10.93;;;5.22;;
67747;SDS011;54543;50.712;6.070;2023-01-24T04:08:52;9.25;;;5.18;;
67747;SDS011;54543;50.712;6.070;2023-01-24T04:11:18;8.18;;;4.60;;
67747;SDS011;54543;50.712;6.070;2023-01-24T04:13:43;8.05;;;4.45;;
67747;SDS011;54543;50.712;6.070;2023-01-24T04:16:09;9.75;;;5.22;;
67747;SDS011;54543;50.712;6.070;2023-01-24T04:18:35;8.60;;;5.15;;
67747;SDS011;54543;50.712;6.070;2023-01-24T04:21:04;7.82;;;4.22;;
67747;SDS011;54543;50.712;6.070;2023-01-24T04:23:30;8.38;;;4.65;;
67747;SDS011;54543;50.712;6.070;2023-01-24T04:25:56;7.30;;;4.30;;
67747;SDS011;54543;50.712;6.070;2023-01-24T04:28:24;7.88;;;4.15;;
67747;SDS011;54543;50.712;6.070;2023-01-24T04:31:00;8.98;;;4.93;;
67747;SDS011;54543;50.712;6.070;2023-01-24T04:33:27;7.40;;;3.60;;
67747;SDS011;54543;50.712;6.070;2023-01-24T04:35:59;7.43;;;4.30;;
67747;SDS011;54543;50.712;6.070;2023-01-24T04:38:25;7.28;;;4.63;;
67747;SDS011;54543;50.712;6.070;2023-01-24T04:40:57;10.38;;;5.13;;
67747;SDS011;54543;50.712;6.070;2023-01-24T04:43:24;8.93;;;4.68;;
67747;SDS011;54543;50.712;6.070;2023-01-24T04:45:53;9.82;;;5.43;;
67747;SDS011;54543;50.712;6.070;2023-01-24T04:48:20;11.65;;;6.53;;
67747;SDS011;54543;50.712;6.070;2023-01-24T04:50:45;12.02;;;6.30;;
67747;SDS011;54543;50.712;6.070;2023-01-24T04:53:11;10.73;;;5.65;;
67747;SDS011;54543;50.712;6.070;2023-01-24T04:55:37;9.90;;;5.45;;
67747;SDS011;54543;50.712;6.070;2023-01-24T04:58:02;9.00;;;5.63;;
67747;SDS011;54543;50.712;6.070;2023-01-24T05:00:28;10.52;;;5.85;;
67747;SDS011;54543;50.712;6.070;2023-01-24T05:02:53;9.80;;;5.90;;
67747;SDS011;54543;50.712;6.070;2023-01-24T05:05:19;8.07;;;4.75;;
67747;SDS011;54543;50.712;6.070;2023-01-24T05:07:44;9.55;;;6.00;;
67747;SDS011;54543;50.712;6.070;2023-01-24T05:10:10;9.63;;;4.82;;
67747;SDS011;54543;50.712;6.070;2023-01-24T05:12:36;11.68;;;6.57;;
67747;SDS011;54543;50.712;6.070;2023-01-24T05:15:02;10.07;;;6.03;;
67747;SDS011;54543;50.712;6.070;2023-01-24T05:17:28;9.57;;;5.65;;
67747;SDS011;54543;50.712;6.070;2023-01-24T05:19:53;8.75;;;5.35;;
67747;SDS011;54543;50.712;6.070;2023-01-24T05:22:19;6.90;;;4.57;;
67747;SDS011;54543;50.712;6.070;2023-01-24T05:24:44;9.70;;;5.25;;
67747;SDS011;54543;50.712;6.070;2023-01-24T05:27:10;7.55;;;4.70;;
67747;SDS011;54543;50.712;6.070;2023-01-24T05:29:35;9.23;;;5.25;;
67747;SDS011;54543;50.712;6.070;2023-01-24T05:32:01;9.02;;;4.90;;
67747;SDS011;54543;50.712;6.070;2023-01-24T05:34:26;9.23;;;5.95;;
67747;SDS011;54543;50.712;6.070;2023-01-24T05:36:52;8.05;;;4.90;;
67747;SDS011;54543;50.712;6.070;2023-01-24T05:39:17;8.73;;;4.95;;
67747;SDS011;54543;50.712;6.070;2023-01-24T05:41:43;9.68;;;5.55;;
67747;SDS011;54543;50.712;6.070;2023-01-24T05:44:08;8.35;;;4.70;;
67747;SDS011;54543;50.712;6.070;2023-01-24T05:46:34;7.70;;;4.10;;
67747;SDS011;54543;50.712;6.070;2023-01-24T05:48:59;8.45;;;4.18;;
67747;SDS011;54543;50.712;6.070;2023-01-24T05:51:25;7.57;;;4.15;;
67747;SDS011;54543;50.712;6.070;2023-01-24T05:53:50;8.52;;;4.65;;
67747;SDS011;54543;50.712;6.070;2023-01-24T05:56:17;7.88;;;4.15;;
67747;SDS011;54543;50.712;6.070;2023-01-24T05:58:44;9.48;;;5.30;;
67747;SDS011;54543;50.712;6.070;2023-01-24T06:01:15;7.32;;;4.20;;
67747;SDS011;54543;50.712;6.070;2023-01-24T06:03:46;6.93;;;4.15;;
67747;SDS011;54543;50.712;6.070;2023-01-24T06:06:16;7.47;;;4.07;;
67747;SDS011;54543;50.712;6.070;2023-01-24T06:08:42;7.25;;;3.92;;
67747;SDS011;54543;50.712;6.070;2023-01-24T06:11:13;6.80;;;3.85;;
67747;SDS011;54543;50.712;6.070;2023-01-24T06:13:41;7.00;;;4.10;;
67747;SDS011;54543;50.712;6.070;2023-01-24T06:16:10;8.55;;;4.63;;
67747;SDS011;54543;50.712;6.070;2023-01-24T06:18:45;7.35;;;4.63;;
67747;SDS011;54543;50.712;6.070;2023-01-24T06:23:40;7.25;;;3.92;;
67747;SDS011;54543;50.712;6.070;2023-01-24T06:26:08;6.63;;;3.80;;
67747;SDS011;54543;50.712;6.070;2023-01-24T06:28:35;6.25;;;3.67;;
67747;SDS011;54543;50.712;6.070;2023-01-24T06:31:11;6.45;;;3.70;;
67747;SDS011;54543;50.712;6.070;2023-01-24T06:34:00;8.13;;;4.65;;
67747;SDS011;54543;50.712;6.070;2023-01-24T06:36:32;7.85;;;4.50;;
67747;SDS011;54543;50.712;6.070;2023-01-24T06:39:16;7.60;;;4.05;;
67747;SDS011;54543;50.712;6.070;2023-01-24T06:41:42;7.60;;;4.45;;
67747;SDS011;54543;50.712;6.070;2023-01-24T06:44:09;8.48;;;4.95;;
67747;SDS011;54543;50.712;6.070;2023-01-24T06:46:36;7.18;;;4.57;;
67747;SDS011;54543;50.712;6.070;2023-01-24T06:49:01;10.38;;;4.80;;
67747;SDS011;54543;50.712;6.070;2023-01-24T06:51:27;7.05;;;4.40;;
67747;SDS011;54543;50.712;6.070;2023-01-24T06:53:52;7.95;;;4.55;;
67747;SDS011;54543;50.712;6.070;2023-01-24T06:56:18;8.35;;;3.97;;
67747;SDS011;54543;50.712;6.070;2023-01-24T06:58:43;5.88;;;3.33;;
67747;SDS011;54543;50.712;6.070;2023-01-24T07:01:09;6.65;;;3.88;;
67747;SDS011;54543;50.712;6.070;2023-01-24T07:03:34;6.38;;;3.80;;
67747;SDS011;54543;50.712;6.070;2023-01-24T07:06:00;9.70;;;4.43;;
67747;SDS011;54543;50.712;6.070;2023-01-24T07:08:25;7.63;;;4.72;;
67747;SDS011;54543;50.712;6.070;2023-01-24T07:10:51;9.57;;;4.65;;
67747;SDS011;54543;50.712;6.070;2023-01-24T07:13:17;6.93;;;3.97;;
67747;SDS011;54543;50.712;6.070;2023-01-24T07:15:42;7.97;;;4.43;;
67747;SDS011;54543;50.712;6.070;2023-01-24T07:18:09;7.75;;;4.70;;
67747;SDS011;54543;50.712;6.070;2023-01-24T07:20:37;6.38;;;3.67;;
67747;SDS011;54543;50.712;6.070;2023-01-24T07:23:03;7.85;;;3.50;;
67747;SDS011;54543;50.712;6.070;2023-01-24T07:25:29;6.88;;;3.72;;
67747;SDS011;54543;50.712;6.070;2023-01-24T07:27:56;6.97;;;3.55;;
67747;SDS011;54543;50.712;6.070;2023-01-24T07:30:22;6.65;;;3.67;;
67747;SDS011;54543;50.712;6.070;2023-01-24T07:32:47;6.70;;;3.50;;
67747;SDS011;54543;50.712;6.070;2023-01-24T07:35:13;6.45;;;3.40;;
67747;SDS011;54543;50.712;6.070;2023-01-24T07:37:38;5.97;;;3.55;;
67747;SDS011;54543;50.712;6.070;2023-01-24T07:40:04;6.63;;;3.55;;
67747;SDS011;54543;50.712;6.070;2023-01-24T07:42:30;5.43;;;2.95;;
67747;SDS011;54543;50.712;6.070;2023-01-24T07:44:56;6.57;;;4.35;;
67747;SDS011;54543;50.712;6.070;2023-01-24T07:47:22;5.65;;;3.20;;
67747;SDS011;54543;50.712;6.070;2023-01-24T07:49:48;6.40;;;3.40;;
67747;SDS011;54543;50.712;6.070;2023-01-24T07:52:14;6.47;;;3.45;;
67747;SDS011;54543;50.712;6.070;2023-01-24T07:54:39;6.70;;;3.97;;
67747;SDS011;54543;50.712;6.070;2023-01-24T07:57:05;7.68;;;3.63;;
67747;SDS011;54543;50.712;6.070;2023-01-24T07:59:33;6.25;;;3.55;;
67747;SDS011;54543;50.712;6.070;2023-01-24T08:01:58;7.35;;;3.35;;
67747;SDS011;54543;50.712;6.070;2023-01-24T08:04:24;7.65;;;3.60;;
67747;SDS011;54543;50.712;6.070;2023-01-24T08:06:49;6.03;;;3.00;;
67747;SDS011;54543;50.712;6.070;2023-01-24T08:09:33;5.43;;;3.33;;
67747;SDS011;54543;50.712;6.070;2023-01-24T08:11:59;6.47;;;3.53;;
67747;SDS011;54543;50.712;6.070;2023-01-24T08:14:24;6.53;;;3.55;;
67747;SDS011;54543;50.712;6.070;2023-01-24T08:16:50;6.75;;;3.47;;
67747;SDS011;54543;50.712;6.070;2023-01-24T08:19:15;7.55;;;4.00;;
67747;SDS011;54543;50.712;6.070;2023-01-24T08:21:41;7.57;;;3.90;;
67747;SDS011;54543;50.712;6.070;2023-01-24T08:24:06;5.82;;;3.72;;
67747;SDS011;54543;50.712;6.070;2023-01-24T08:26:32;6.95;;;3.67;;
67747;SDS011;54543;50.712;6.070;2023-01-24T08:28:58;7.70;;;3.92;;
67747;SDS011;54543;50.712;6.070;2023-01-24T08:31:24;6.68;;;3.50;;
67747;SDS011;54543;50.712;6.070;2023-01-24T08:33:49;6.13;;;3.58;;
67747;SDS011;54543;50.712;6.070;2023-01-24T08:36:17;5.82;;;3.38;;
67747;SDS011;54543;50.712;6.070;2023-01-24T08:38:44;6.40;;;3.67;;
67747;SDS011;54543;50.712;6.070;2023-01-24T08:41:11;6.88;;;3.92;;
67747;SDS011;54543;50.712;6.070;2023-01-24T08:43:36;8.18;;;3.90;;
67747;SDS011;54543;50.712;6.070;2023-01-24T08:46:02;6.35;;;3.67;;
67747;SDS011;54543;50.712;6.070;2023-01-24T08:48:28;5.88;;;3.35;;
67747;SDS011;54543;50.712;6.070;2023-01-24T08:50:54;6.43;;;3.42;;
67747;SDS011;54543;50.712;6.070;2023-01-24T08:53:20;6.45;;;3.30;;
67747;SDS011;54543;50.712;6.070;2023-01-24T08:55:48;7.05;;;3.50;;
67747;SDS011;54543;50.712;6.070;2023-01-24T08:58:15;5.57;;;3.10;;
67747;SDS011;54543;50.712;6.070;2023-01-24T09:00:41;7.20;;;3.45;;
67747;SDS011;54543;50.712;6.070;2023-01-24T09:03:06;6.65;;;3.80;;
67747;SDS011;54543;50.712;6.070;2023-01-24T09:05:32;6.63;;;4.05;;
67747;SDS011;54543;50.712;6.070;2023-01-24T09:07:57;6.20;;;3.72;;
67747;SDS011;54543;50.712;6.070;2023-01-24T09:10:24;6.03;;;2.92;;
67747;SDS011;54543;50.712;6.070;2023-01-24T09:12:49;7.75;;;3.55;;
67747;SDS011;54543;50.712;6.070;2023-01-24T09:15:15;5.18;;;3.17;;
67747;SDS011;54543;50.712;6.070;2023-01-24T09:17:40;6.30;;;3.80;;
67747;SDS011;54543;50.712;6.070;2023-01-24T09:20:06;5.47;;;3.20;;
67747;SDS011;54543;50.712;6.070;2023-01-24T09:22:33;7.28;;;4.07;;
67747;SDS011;54543;50.712;6.070;2023-01-24T09:24:58;5.43;;;3.50;;
67747;SDS011;54543;50.712;6.070;2023-01-24T09:27:24;6.40;;;3.38;;
67747;SDS011;54543;50.712;6.070;2023-01-24T09:29:50;6.28;;;3.63;;
67747;SDS011;54543;50.712;6.070;2023-01-24T09:32:15;6.20;;;3.45;;
67747;SDS011;54543;50.712;6.070;2023-01-24T09:34:42;6.63;;;3.65;;
67747;SDS011;54543;50.712;6.070;2023-01-24T09:37:12;6.05;;;3.70;;
67747;SDS011;54543;50.712;6.070;2023-01-24T09:39:41;6.65;;;3.53;;
67747;SDS011;54543;50.712;6.070;2023-01-24T09:42:22;8.70;;;3.60;;
67747;SDS011;54543;50.712;6.070;2023-01-24T09:45:11;6.28;;;3.63;;
67747;SDS011;54543;50.712;6.070;2023-01-24T09:47:41;5.10;;;2.60;;
67747;SDS011;54543;50.712;6.070;2023-01-24T09:50:18;6.30;;;4.50;;
67747;SDS011;54543;50.712;6.070;2023-01-24T09:52:52;6.35;;;3.45;;
67747;SDS011;54543;50.712;6.070;2023-01-24T09:55:36;5.93;;;3.50;;
67747;SDS011;54543;50.712;6.070;2023-01-24T10:00:44;4.65;;;2.67;;
67747;SDS011;54543;50.712;6.070;2023-01-24T10:03:12;5.45;;;3.08;;
67747;SDS011;54543;50.712;6.070;2023-01-24T10:05:45;5.32;;;3.30;;
67747;SDS011;54543;50.712;6.070;2023-01-24T10:19:19;5.93;;;3.25;;
67747;SDS011;54543;50.712;6.070;2023-01-24T10:22:20;4.72;;;2.83;;
67747;SDS011;54543;50.712;6.070;2023-01-24T10:25:00;5.07;;;3.00;;
67747;SDS011;54543;50.712;6.070;2023-01-24T10:27:41;5.63;;;3.17;;
67747;SDS011;54543;50.712;6.070;2023-01-24T10:30:28;6.00;;;3.33;;
67747;SDS011;54543;50.712;6.070;2023-01-24T10:32:58;5.30;;;3.22;;
67747;SDS011;54543;50.712;6.070;2023-01-24T10:38:04;5.53;;;3.35;;
67747;SDS011;54543;50.712;6.070;2023-01-24T10:40:39;5.85;;;3.53;;
67747;SDS011;54543;50.712;6.070;2023-01-24T10:43:26;7.75;;;3.08;;
67747;SDS011;54543;50.712;6.070;2023-01-24T10:48:43;5.28;;;3.17;;
67747;SDS011;54543;50.712;6.070;2023-01-24T10:53:43;4.10;;;2.40;;
67747;SDS011;54543;50.712;6.070;2023-01-24T10:56:10;5.60;;;3.17;;
67747;SDS011;54543;50.712;6.070;2023-01-24T10:58:39;7.53;;;4.18;;
67747;SDS011;54543;50.712;6.070;2023-01-24T11:01:18;6.88;;;3.78;;
67747;SDS011;54543;50.712;6.070;2023-01-24T11:03:45;6.35;;;3.85;;
67747;SDS011;54543;50.712;6.070;2023-01-24T11:06:23;6.07;;;3.22;;
67747;SDS011;54543;50.712;6.070;2023-01-24T11:11:36;5.45;;;3.42;;
67747;SDS011;54543;50.712;6.070;2023-01-24T11:14:08;6.50;;;3.65;;
67747;SDS011;54543;50.712;6.070;2023-01-24T11:19:20;5.30;;;3.30;;
67747;SDS011;54543;50.712;6.070;2023-01-24T11:21:49;6.13;;;3.33;;
67747;SDS011;54543;50.712;6.070;2023-01-24T11:24:17;5.63;;;3.45;;
67747;SDS011;54543;50.712;6.070;2023-01-24T11:29:37;5.43;;;3.28;;
67747;SDS011;54543;50.712;6.070;2023-01-24T11:40:18;5.18;;;3.17;;
67747;SDS011;54543;50.712;6.070;2023-01-24T11:45:24;6.40;;;3.83;;
67747;SDS011;54543;50.712;6.070;2023-01-24T11:50:45;5.47;;;3.63;;
67747;SDS011;54543;50.712;6.070;2023-01-24T11:56:17;5.93;;;3.53;;
67747;SDS011;54543;50.712;6.070;2023-01-24T12:04:16;6.13;;;3.33;;
67747;SDS011;54543;50.712;6.070;2023-01-24T12:12:30;6.40;;;3.75;;
67747;SDS011;54543;50.712;6.070;2023-01-24T12:17:57;4.82;;;2.78;;
67747;SDS011;54543;50.712;6.070;2023-01-24T12:26:26;5.95;;;3.63;;
67747;SDS011;54543;50.712;6.070;2023-01-24T12:29:17;5.85;;;3.75;;
67747;SDS011;54543;50.712;6.070;2023-01-24T12:42:44;7.13;;;4.10;;
67747;SDS011;54543;50.712;6.070;2023-01-24T12:45:20;6.78;;;4.50;;
67747;SDS011;54543;50.712;6.070;2023-01-24T12:48:14;6.30;;;4.07;;
67747;SDS011;54543;50.712;6.070;2023-01-24T12:50:49;6.25;;;3.97;;
67747;SDS011;54543;50.712;6.070;2023-01-24T12:53:22;7.07;;;4.32;;
67747;SDS011;54543;50.712;6.070;2023-01-24T12:58:40;6.05;;;3.85;;
67747;SDS011;54543;50.712;6.070;2023-01-24T13:04:04;5.13;;;3.10;;
67747;SDS011;54543;50.712;6.070;2023-01-24T13:06:35;5.55;;;3.33;;
67747;SDS011;54543;50.712;6.070;2023-01-24T13:11:57;5.82;;;3.78;;
67747;SDS011;54543;50.712;6.070;2023-01-24T13:14:28;5.57;;;3.70;;
67747;SDS011;54543;50.712;6.070;2023-01-24T13:17:21;6.53;;;3.83;;
67747;SDS011;54543;50.712;6.070;2023-01-24T13:19:57;5.55;;;3.42;;
67747;SDS011;54543;50.712;6.070;2023-01-24T13:28:26;4.95;;;3.33;;
67747;SDS011;54543;50.712;6.070;2023-01-24T13:33:54;5.18;;;3.53;;
67747;SDS011;54543;50.712;6.070;2023-01-24T13:36:34;5.13;;;3.22;;
67747;SDS011;54543;50.712;6.070;2023-01-24T13:39:02;7.50;;;4.35;;
67747;SDS011;54543;50.712;6.070;2023-01-24T13:43:58;8.00;;;4.32;;
67747;SDS011;54543;50.712;6.070;2023-01-24T13:51:53;7.55;;;4.07;;
67747;SDS011;54543;50.712;6.070;2023-01-24T13:54:22;6.68;;;3.97;;
67747;SDS011;54543;50.712;6.070;2023-01-24T14:08:03;6.53;;;3.70;;
67747;SDS011;54543;50.712;6.070;2023-01-24T14:10:48;6.63;;;4.03;;
67747;SDS011;54543;50.712;6.070;2023-01-24T14:27:32;4.72;;;3.13;;
67747;SDS011;54543;50.712;6.070;2023-01-24T14:35:47;6.82;;;3.75;;
67747;SDS011;54543;50.712;6.070;2023-01-24T14:38:21;7.00;;;4.07;;
67747;SDS011;54543;50.712;6.070;2023-01-24T14:40:50;7.88;;;3.95;;
67747;SDS011;54543;50.712;6.070;2023-01-24T14:43:18;6.22;;;3.60;;
67747;SDS011;54543;50.712;6.070;2023-01-24T14:45:46;6.80;;;3.53;;
67747;SDS011;54543;50.712;6.070;2023-01-24T14:48:14;6.20;;;3.78;;
67747;SDS011;54543;50.712;6.070;2023-01-24T14:50:55;6.37;;;3.90;;
67747;SDS011;54543;50.712;6.070;2023-01-24T14:53:26;7.60;;;5.07;;
67747;SDS011;54543;50.712;6.070;2023-01-24T14:55:54;5.88;;;3.95;;
67747;SDS011;54543;50.712;6.070;2023-01-24T14:58:41;6.13;;;3.45;;
67747;SDS011;54543;50.712;6.070;2023-01-24T15:03:50;6.70;;;4.13;;
67747;SDS011;54543;50.712;6.070;2023-01-24T15:06:18;7.35;;;4.53;;
67747;SDS011;54543;50.712;6.070;2023-01-24T15:08:44;7.80;;;4.60;;
67747;SDS011;54543;50.712;6.070;2023-01-24T15:11:43;6.15;;;3.80;;
67747;SDS011;54543;50.712;6.070;2023-01-24T15:14:03;7.18;;;4.18;;
67747;SDS011;54543;50.712;6.070;2023-01-24T15:16:35;6.57;;;3.95;;
67747;SDS011;54543;50.712;6.070;2023-01-24T15:21:49;6.18;;;4.05;;
67747;SDS011;54543;50.712;6.070;2023-01-24T15:24:24;6.53;;;3.88;;
67747;SDS011;54543;50.712;6.070;2023-01-24T15:26:52;6.27;;;3.07;;
67747;SDS011;54543;50.712;6.070;2023-01-24T15:31:59;5.93;;;3.20;;
67747;SDS011;54543;50.712;6.070;2023-01-24T15:34:25;6.85;;;3.80;;
67747;SDS011;54543;50.712;6.070;2023-01-24T15:37:00;5.85;;;4.30;;
67747;SDS011;54543;50.712;6.070;2023-01-24T15:39:26;7.35;;;4.28;;
67747;SDS011;54543;50.712;6.070;2023-01-24T15:41:52;7.18;;;4.00;;
67747;SDS011;54543;50.712;6.070;2023-01-24T15:44:46;6.07;;;3.73;;
67747;SDS011;54543;50.712;6.070;2023-01-24T15:47:19;5.57;;;3.30;;
67747;SDS011;54543;50.712;6.070;2023-01-24T15:50:14;6.05;;;3.50;;
67747;SDS011;54543;50.712;6.070;2023-01-24T15:55:47;4.97;;;3.65;;
67747;SDS011;54543;50.712;6.070;2023-01-24T15:58:12;6.50;;;3.25;;
67747;SDS011;54543;50.712;6.070;2023-01-24T16:00:38;5.45;;;3.25;;
67747;SDS011;54543;50.712;6.070;2023-01-24T16:03:05;5.57;;;3.60;;
67747;SDS011;54543;50.712;6.070;2023-01-24T16:05:31;6.53;;;3.50;;
67747;SDS011;54543;50.712;6.070;2023-01-24T16:07:57;5.75;;;3.38;;
67747;SDS011;54543;50.712;6.070;2023-01-24T16:10:22;6.38;;;3.53;;
67747;SDS011;54543;50.712;6.070;2023-01-24T16:12:49;6.60;;;4.15;;
67747;SDS011;54543;50.712;6.070;2023-01-24T16:15:16;6.68;;;3.60;;
67747;SDS011;54543;50.712;6.070;2023-01-24T16:17:44;6.18;;;3.70;;
67747;SDS011;54543;50.712;6.070;2023-01-24T16:20:20;6.55;;;3.72;;
67747;SDS011;54543;50.712;6.070;2023-01-24T16:22:51;7.22;;;3.63;;
67747;SDS011;54543;50.712;6.070;2023-01-24T16:25:17;6.68;;;4.10;;
67747;SDS011;54543;50.712;6.070;2023-01-24T16:27:47;6.10;;;3.67;;
67747;SDS011;54543;50.712;6.070;2023-01-24T16:30:18;6.50;;;3.08;;
67747;SDS011;54543;50.712;6.070;2023-01-24T16:32:45;6.50;;;3.90;;
67747;SDS011;54543;50.712;6.070;2023-01-24T16:35:11;7.03;;;3.95;;
67747;SDS011;54543;50.712;6.070;2023-01-24T16:37:37;8.18;;;5.03;;
67747;SDS011;54543;50.712;6.070;2023-01-24T16:40:02;8.40;;;4.88;;
67747;SDS011;54543;50.712;6.070;2023-01-24T16:42:28;7.85;;;4.18;;
67747;SDS011;54543;50.712;6.070;2023-01-24T16:44:54;7.53;;;3.90;;
67747;SDS011;54543;50.712;6.070;2023-01-24T16:47:22;8.60;;;4.50;;
67747;SDS011;54543;50.712;6.070;2023-01-24T16:49:53;6.43;;;3.85;;
67747;SDS011;54543;50.712;6.070;2023-01-24T16:52:19;6.65;;;4.15;;
67747;SDS011;54543;50.712;6.070;2023-01-24T16:54:45;7.10;;;4.03;;
67747;SDS011;54543;50.712;6.070;2023-01-24T16:57:11;6.72;;;4.47;;
67747;SDS011;54543;50.712;6.070;2023-01-24T16:59:37;7.70;;;4.50;;
67747;SDS011;54543;50.712;6.070;2023-01-24T17:02:02;7.30;;;4.45;;
67747;SDS011;54543;50.712;6.070;2023-01-24T17:04:28;7.40;;;4.05;;
67747;SDS011;54543;50.712;6.070;2023-01-24T17:06:54;6.30;;;3.97;;
67747;SDS011;54543;50.712;6.070;2023-01-24T17:09:25;6.20;;;3.30;;
67747;SDS011;54543;50.712;6.070;2023-01-24T17:11:50;5.75;;;3.80;;
67747;SDS011;54543;50.712;6.070;2023-01-24T17:14:16;7.40;;;4.78;;
67747;SDS011;54543;50.712;6.070;2023-01-24T17:16:41;8.10;;;5.15;;
67747;SDS011;54543;50.712;6.070;2023-01-24T17:19:07;7.35;;;4.43;;
67747;SDS011;54543;50.712;6.070;2023-01-24T17:21:32;8.68;;;5.13;;
67747;SDS011;54543;50.712;6.070;2023-01-24T17:23:58;7.03;;;4.28;;
67747;SDS011;54543;50.712;6.070;2023-01-24T17:26:23;8.18;;;4.75;;
67747;SDS011;54543;50.712;6.070;2023-01-24T17:28:49;8.82;;;4.45;;
67747;SDS011;54543;50.712;6.070;2023-01-24T17:31:16;8.05;;;4.30;;
67747;SDS011;54543;50.712;6.070;2023-01-24T17:33:44;7.60;;;4.30;;
67747;SDS011;54543;50.712;6.070;2023-01-24T17:36:10;8.07;;;5.05;;
67747;SDS011;54543;50.712;6.070;2023-01-24T17:38:39;7.68;;;4.60;;
67747;SDS011;54543;50.712;6.070;2023-01-24T17:41:16;8.57;;;4.75;;
67747;SDS011;54543;50.712;6.070;2023-01-24T17:43:43;8.02;;;4.45;;